createdAt,value
2023-12-03T00:00:11.128Z,11.75
2023-12-03T00:02:38.287Z,11.05
2023-12-03T00:05:05.697Z,13.20
2023-12-03T00:07:33.316Z,9.35
2023-12-03T00:10:00.292Z,13.30
2023-12-03T00:12:27.403Z,10.23
2023-12-03T00:14:54.139Z,11.80
2023-12-03T00:17:20.794Z,9.77
2023-12-03T00:19:47.386Z,16.38
2023-12-03T00:22:14.946Z,12.45
2023-12-03T00:24:41.884Z,12.70
2023-12-03T00:27:08.713Z,13.75
2023-12-03T00:29:35.538Z,10.40
2023-12-03T00:32:02.276Z,11.32
2023-12-03T00:34:28.973Z,11.15
2023-12-03T00:36:55.665Z,9.55
2023-12-03T00:39:22.330Z,11.52
2023-12-03T00:41:49.070Z,11.43
2023-12-03T00:44:15.713Z,9.40
2023-12-03T00:46:42.681Z,11.93
2023-12-03T00:49:11.204Z,14.27
2023-12-03T00:51:38.705Z,11.93
2023-12-03T00:54:05.392Z,12.48
2023-12-03T00:56:32.103Z,11.05
2023-12-03T00:58:58.775Z,9.95
2023-12-03T01:01:25.634Z,11.77
2023-12-03T01:03:52.664Z,13.32
2023-12-03T01:06:19.501Z,11.07
2023-12-03T01:08:46.199Z,11.25
2023-12-03T01:11:12.917Z,12.13
2023-12-03T01:13:39.574Z,10.48
2023-12-03T01:16:14.095Z,10.20
2023-12-03T01:18:41.245Z,13.98
2023-12-03T01:21:08.274Z,15.63
2023-12-03T01:23:34.925Z,10.57
2023-12-03T01:26:01.576Z,12.90
2023-12-03T01:28:28.202Z,10.35
2023-12-03T01:30:54.966Z,10.40
2023-12-03T01:33:21.785Z,12.93
2023-12-03T01:35:49.008Z,16.08
2023-12-03T01:38:16.165Z,11.95
2023-12-03T01:40:52.439Z,11.93
2023-12-03T01:43:19.177Z,13.35
2023-12-03T01:45:46.581Z,13.43
2023-12-03T01:48:14.406Z,13.77
2023-12-03T01:50:41.653Z,13.07
2023-12-03T01:53:09.601Z,12.70
2023-12-03T01:55:36.403Z,13.70
2023-12-03T01:58:03.489Z,12.63
2023-12-03T02:00:30.315Z,12.73
2023-12-03T02:02:57.548Z,12.90
2023-12-03T02:05:24.227Z,15.82
2023-12-03T02:07:50.920Z,10.93
2023-12-03T02:10:17.742Z,14.55
2023-12-03T02:12:44.637Z,13.43
2023-12-03T02:15:11.353Z,15.85
2023-12-03T02:17:38.170Z,13.80
2023-12-03T02:20:06.078Z,13.77
2023-12-03T02:22:32.681Z,12.75
2023-12-03T02:24:59.396Z,11.65
2023-12-03T02:27:26.159Z,14.32
2023-12-03T02:29:52.777Z,14.40
2023-12-03T02:32:19.363Z,13.82
2023-12-03T02:34:46.058Z,16.40
2023-12-03T02:37:12.706Z,12.98
2023-12-03T02:39:39.399Z,13.82
2023-12-03T02:42:06.071Z,14.70
2023-12-03T02:44:32.667Z,15.40
2023-12-03T02:46:59.455Z,16.05
2023-12-03T02:49:26.522Z,12.45
2023-12-03T02:51:53.244Z,16.23
2023-12-03T02:54:20.103Z,16.30
2023-12-03T02:56:47.139Z,16.17
2023-12-03T02:59:13.829Z,14.32
2023-12-03T03:01:40.619Z,12.40
2023-12-03T03:04:07.368Z,15.75
2023-12-03T03:06:34.129Z,14.98
2023-12-03T03:09:00.774Z,13.30
2023-12-03T03:11:27.386Z,14.93
2023-12-03T03:13:53.965Z,13.52
2023-12-03T03:16:25.564Z,17.92
2023-12-03T03:18:52.338Z,20.55
2023-12-03T03:21:19.025Z,14.73
2023-12-03T03:23:45.597Z,14.90
2023-12-03T03:26:12.468Z,15.80
2023-12-03T03:28:39.301Z,17.15
2023-12-03T03:31:06.165Z,18.52
2023-12-03T03:33:32.864Z,19.55
2023-12-03T03:35:59.559Z,17.08
2023-12-03T03:38:26.288Z,15.77
2023-12-03T03:40:54.005Z,17.25
2023-12-03T03:43:20.611Z,17.70
2023-12-03T03:45:47.282Z,17.02
2023-12-03T03:48:14.853Z,17.42
2023-12-03T03:50:41.658Z,16.48
2023-12-03T03:53:08.264Z,16.55
2023-12-03T03:55:34.934Z,16.98
2023-12-03T03:58:01.533Z,18.38
2023-12-03T04:00:28.152Z,18.73
2023-12-03T04:02:54.782Z,18.40
2023-12-03T04:05:21.424Z,19.40
2023-12-03T04:07:48.073Z,19.25
2023-12-03T04:10:14.843Z,19.65
2023-12-03T04:12:42.639Z,20.63
2023-12-03T04:15:09.945Z,17.92
2023-12-03T04:17:36.823Z,23.23
2023-12-03T04:20:05.368Z,20.25
2023-12-03T04:22:31.959Z,18.23
2023-12-03T04:24:58.580Z,21.23
2023-12-03T04:27:26.302Z,23.73
2023-12-03T04:29:53.054Z,19.50
2023-12-03T04:32:19.681Z,17.50
2023-12-03T04:34:46.346Z,21.88
2023-12-03T04:37:13.016Z,22.33
2023-12-03T04:39:40.077Z,21.83
2023-12-03T04:42:07.806Z,22.25
2023-12-03T04:44:34.687Z,18.80
2023-12-03T04:47:01.340Z,18.65
2023-12-03T04:49:28.059Z,23.50
2023-12-03T04:51:54.881Z,24.15
2023-12-03T04:54:21.877Z,24.02
2023-12-03T04:56:48.438Z,21.48
2023-12-03T04:59:15.143Z,19.63
2023-12-03T05:01:41.930Z,24.25
2023-12-03T05:04:08.580Z,22.90
2023-12-03T05:06:35.275Z,28.02
2023-12-03T05:09:01.851Z,22.92
2023-12-03T05:11:28.548Z,21.55
2023-12-03T05:13:55.153Z,19.33
2023-12-03T05:16:22.524Z,19.65
2023-12-03T05:18:49.333Z,19.58
2023-12-03T05:21:16.124Z,21.48
2023-12-03T05:23:42.765Z,20.63
2023-12-03T05:26:09.387Z,25.42
2023-12-03T05:28:36.206Z,21.38
2023-12-03T05:31:05.137Z,21.40
2023-12-03T05:33:31.935Z,25.77
2023-12-03T05:35:59.203Z,22.33
2023-12-03T05:38:25.774Z,24.17
2023-12-03T05:40:52.669Z,19.52
2023-12-03T05:43:19.387Z,21.40
2023-12-03T05:45:46.100Z,24.17
2023-12-03T05:48:13.104Z,25.05
2023-12-03T05:50:39.793Z,23.35
2023-12-03T05:53:06.419Z,24.33
2023-12-03T05:55:33.041Z,28.33
2023-12-03T05:57:59.674Z,22.35
2023-12-03T06:00:26.657Z,26.75
2023-12-03T06:02:53.448Z,22.48
2023-12-03T06:05:20.108Z,24.88
2023-12-03T06:07:46.801Z,25.13
2023-12-03T06:10:13.413Z,26.73
2023-12-03T06:12:40.147Z,24.20
2023-12-03T06:15:08.498Z,26.80
2023-12-03T06:17:35.416Z,28.17
2023-12-03T06:20:02.805Z,19.85
2023-12-03T06:22:29.412Z,20.98
2023-12-03T06:24:56.065Z,22.20
2023-12-03T06:27:22.806Z,22.35
2023-12-03T06:29:49.430Z,24.33
2023-12-03T06:32:16.078Z,20.67
2023-12-03T06:34:42.794Z,25.08
2023-12-03T06:37:09.684Z,22.92
2023-12-03T06:39:36.734Z,26.55
2023-12-03T06:42:03.650Z,23.35
2023-12-03T06:44:38.198Z,26.45
2023-12-03T06:47:10.819Z,23.92
2023-12-03T06:49:37.618Z,21.13
2023-12-03T06:52:04.640Z,26.73
2023-12-03T06:54:31.328Z,23.30
2023-12-03T06:56:58.255Z,29.23
2023-12-03T06:59:24.870Z,25.63
2023-12-03T07:01:51.672Z,29.40
2023-12-03T07:04:18.446Z,26.33
2023-12-03T07:06:45.240Z,24.80
2023-12-03T07:09:36.450Z,26.02
2023-12-03T07:11:59.681Z,26.10
2023-12-03T07:14:26.315Z,23.55
2023-12-03T07:16:52.911Z,24.58
2023-12-03T07:19:19.568Z,25.27
2023-12-03T07:21:46.266Z,25.48
2023-12-03T07:24:13.546Z,25.40
2023-12-03T07:26:44.952Z,22.13
2023-12-03T07:29:11.756Z,24.08
2023-12-03T07:31:38.374Z,28.63
2023-12-03T07:34:05.161Z,31.13
2023-12-03T07:36:31.912Z,24.20
2023-12-03T07:38:58.551Z,27.42
2023-12-03T07:41:25.299Z,25.63
2023-12-03T07:43:52.510Z,27.25
2023-12-03T07:46:19.721Z,28.85
2023-12-03T07:48:47.199Z,27.50
2023-12-03T07:51:14.027Z,27.25
2023-12-03T07:53:41.442Z,23.77
2023-12-03T07:56:08.815Z,21.65
2023-12-03T07:58:36.991Z,24.08
2023-12-03T08:01:06.461Z,33.40
2023-12-03T08:03:33.483Z,26.27
2023-12-03T08:06:00.418Z,25.33
2023-12-03T08:08:27.147Z,27.77
2023-12-03T08:10:53.812Z,21.38
2023-12-03T08:13:20.437Z,28.77
2023-12-03T08:15:47.077Z,23.77
2023-12-03T08:18:13.817Z,21.88
2023-12-03T08:20:40.809Z,25.27
2023-12-03T08:23:07.429Z,27.55
2023-12-03T08:25:34.325Z,25.13
2023-12-03T08:28:00.986Z,27.02
2023-12-03T08:30:27.632Z,31.77
2023-12-03T08:32:55.437Z,26.13
2023-12-03T08:35:22.121Z,25.92
2023-12-03T08:37:49.618Z,20.25
2023-12-03T08:40:16.259Z,24.85
2023-12-03T08:42:45.372Z,22.33
2023-12-03T08:45:12.402Z,21.65
2023-12-03T08:47:39.124Z,20.27
2023-12-03T08:50:06.807Z,26.70
2023-12-03T08:52:33.580Z,24.63
2023-12-03T08:55:01.818Z,27.67
2023-12-03T08:57:28.668Z,28.45
2023-12-03T08:59:55.604Z,26.13
2023-12-03T09:02:22.852Z,25.58
2023-12-03T09:04:52.326Z,24.88
2023-12-03T09:07:22.082Z,26.17
2023-12-03T09:09:49.286Z,25.33
2023-12-03T09:12:18.924Z,19.50
2023-12-03T09:14:45.596Z,25.88
2023-12-03T09:17:12.532Z,23.30
2023-12-03T09:19:39.370Z,26.95
2023-12-03T09:22:06.147Z,24.52
2023-12-03T09:24:32.918Z,25.85
2023-12-03T09:27:00.366Z,22.10
2023-12-03T09:29:27.088Z,27.90
2023-12-03T09:31:57.131Z,22.65
2023-12-03T09:34:24.179Z,26.02
2023-12-03T09:36:53.482Z,24.45
2023-12-03T09:39:20.127Z,25.73
2023-12-03T09:41:50.763Z,23.42
2023-12-03T09:44:42.660Z,28.88
2023-12-03T09:47:11.480Z,23.70
2023-12-03T09:49:42.734Z,28.65
2023-12-03T09:52:09.883Z,23.70
2023-12-03T09:54:40.200Z,25.67
2023-12-03T09:57:10.807Z,21.58
2023-12-03T09:59:42.412Z,19.50
2023-12-03T10:02:13.632Z,22.83
2023-12-03T10:04:40.505Z,20.98
2023-12-03T10:07:08.615Z,23.20
2023-12-03T10:09:37.781Z,27.98
2023-12-03T10:12:06.801Z,21.08
2023-12-03T10:14:35.304Z,23.73
2023-12-03T10:17:02.542Z,26.30
2023-12-03T10:19:29.475Z,21.08
2023-12-03T10:21:59.837Z,25.35
2023-12-03T10:24:26.624Z,35.22
2023-12-03T10:26:57.735Z,22.20
2023-12-03T10:29:24.688Z,22.45
2023-12-03T10:31:52.200Z,19.98
2023-12-03T10:34:21.155Z,23.52
2023-12-03T10:36:48.572Z,23.60
2023-12-03T10:39:18.693Z,23.73
2023-12-03T10:41:52.281Z,24.27
2023-12-03T10:44:20.199Z,19.70
2023-12-03T10:46:46.833Z,22.30
2023-12-03T10:49:15.846Z,23.33
2023-12-03T10:51:43.962Z,19.15
2023-12-03T10:54:11.974Z,19.58
2023-12-03T10:56:39.147Z,21.35
2023-12-03T10:59:10.815Z,23.33
2023-12-03T11:01:42.116Z,22.05
2023-12-03T11:04:32.300Z,18.27
2023-12-03T11:06:59.538Z,22.83
2023-12-03T11:09:27.527Z,18.75
2023-12-03T11:11:54.797Z,20.00
2023-12-03T11:14:21.399Z,19.02
2023-12-03T11:17:00.057Z,22.48
2023-12-03T11:19:28.613Z,19.13
2023-12-03T11:22:08.295Z,20.42
2023-12-03T11:25:07.834Z,24.23
2023-12-03T11:27:34.616Z,20.42
2023-12-03T11:30:05.863Z,21.17
2023-12-03T11:32:36.180Z,18.38
2023-12-03T11:35:14.712Z,21.77
2023-12-03T11:37:45.208Z,20.23
2023-12-03T11:40:17.420Z,22.35
2023-12-03T11:42:49.335Z,21.50
2023-12-03T11:45:17.560Z,18.65
2023-12-03T11:48:05.721Z,23.25
2023-12-03T11:50:43.008Z,15.02
2023-12-03T11:53:12.745Z,21.50
2023-12-03T11:55:40.665Z,23.00
2023-12-03T11:58:07.794Z,18.67
2023-12-03T12:00:35.434Z,20.90
2023-12-03T12:03:06.520Z,20.00
2023-12-03T12:05:33.773Z,22.77
2023-12-03T12:08:04.699Z,24.42
2023-12-03T12:10:33.207Z,18.80
2023-12-03T12:13:05.179Z,27.42
2023-12-03T12:15:32.428Z,19.50
2023-12-03T12:17:59.270Z,23.88
2023-12-03T12:20:27.185Z,19.90
2023-12-03T12:22:54.800Z,18.75
2023-12-03T12:25:22.905Z,20.58
2023-12-03T12:27:50.862Z,14.07
2023-12-03T12:30:30.830Z,17.77
2023-12-03T12:33:02.542Z,24.45
2023-12-03T12:35:29.592Z,22.90
2023-12-03T12:38:01.893Z,17.05
2023-12-03T12:40:30.674Z,18.80
2023-12-03T12:43:12.520Z,17.98
2023-12-03T12:45:40.873Z,20.88
2023-12-03T12:48:39.849Z,19.15
2023-12-03T12:51:19.396Z,18.90
2023-12-03T12:54:02.883Z,21.15
2023-12-03T12:56:31.047Z,32.25
2023-12-03T12:58:58.318Z,18.73
2023-12-03T13:01:25.023Z,17.35
2023-12-03T13:03:51.966Z,16.77
2023-12-03T13:06:21.894Z,18.25
2023-12-03T13:08:48.785Z,18.92
2023-12-03T13:11:15.506Z,23.30
2023-12-03T13:13:42.135Z,16.55
2023-12-03T13:16:09.566Z,17.38
2023-12-03T13:18:38.372Z,17.27
2023-12-03T13:21:05.129Z,19.25
2023-12-03T13:23:31.767Z,16.60
2023-12-03T13:25:58.405Z,18.50
2023-12-03T13:28:24.994Z,17.98
2023-12-03T13:30:52.269Z,15.43
2023-12-03T13:33:18.945Z,18.25
2023-12-03T13:35:45.610Z,17.63
2023-12-03T13:38:12.323Z,17.92
2023-12-03T13:40:39.157Z,15.80
2023-12-03T13:43:05.827Z,20.10
2023-12-03T13:45:32.549Z,18.30
2023-12-03T13:47:59.634Z,16.70
2023-12-03T13:50:26.957Z,17.73
2023-12-03T13:52:54.108Z,16.67
2023-12-03T13:55:20.787Z,17.23
2023-12-03T13:57:47.395Z,19.05
2023-12-03T14:00:14.911Z,19.75
2023-12-03T14:02:42.423Z,19.10
2023-12-03T14:07:39.802Z,15.75
2023-12-03T14:10:10.161Z,15.65
2023-12-03T14:12:37.157Z,26.75
2023-12-03T14:15:05.278Z,23.45
2023-12-03T14:17:32.431Z,16.38
2023-12-03T14:19:59.067Z,21.08
2023-12-03T14:22:25.642Z,23.80
2023-12-03T14:24:52.416Z,20.67
2023-12-03T14:27:19.055Z,17.77
2023-12-03T14:29:45.801Z,18.13
2023-12-03T14:32:12.432Z,21.92
2023-12-03T14:34:40.200Z,18.92
2023-12-03T14:37:08.828Z,21.63
2023-12-03T14:39:35.432Z,22.60
2023-12-03T14:42:05.784Z,19.70
2023-12-03T14:44:41.023Z,17.42
2023-12-03T14:47:07.730Z,22.33
2023-12-03T14:49:34.504Z,17.75
2023-12-03T14:52:02.136Z,16.25
2023-12-03T14:54:28.838Z,14.52
2023-12-03T14:56:59.090Z,16.75
2023-12-03T14:59:25.712Z,16.17
2023-12-03T15:01:52.507Z,17.95
2023-12-03T15:04:19.741Z,17.77
2023-12-03T15:06:46.414Z,14.18
2023-12-03T15:09:13.081Z,17.25
2023-12-03T15:11:41.550Z,20.08
2023-12-03T15:14:08.386Z,18.17
2023-12-03T15:16:35.064Z,17.23
2023-12-03T15:19:02.008Z,18.23
2023-12-03T15:21:29.337Z,18.30
2023-12-03T15:23:56.994Z,16.45
2023-12-03T15:26:23.781Z,16.80
2023-12-03T15:28:51.079Z,16.33
2023-12-03T15:31:18.040Z,16.52
2023-12-03T15:33:44.719Z,15.48
2023-12-03T15:36:11.732Z,18.15
2023-12-03T15:38:38.384Z,19.73
2023-12-03T15:41:05.578Z,28.13
2023-12-03T15:43:37.333Z,20.23
2023-12-03T15:46:09.498Z,18.15
2023-12-03T15:48:36.629Z,16.98
2023-12-03T15:51:03.625Z,18.27
2023-12-03T15:53:30.274Z,18.50
2023-12-03T15:55:57.241Z,20.88
2023-12-03T15:58:25.406Z,18.25
2023-12-03T16:00:52.249Z,17.75
2023-12-03T16:03:19.013Z,20.58
2023-12-03T16:05:45.734Z,25.90
2023-12-03T16:08:12.416Z,23.88
2023-12-03T16:10:40.027Z,21.48
2023-12-03T16:13:06.597Z,29.02
2023-12-03T16:15:33.544Z,23.15
2023-12-03T16:18:00.806Z,22.83
2023-12-03T16:20:28.366Z,28.30
2023-12-03T16:22:55.538Z,23.10
2023-12-03T16:25:22.561Z,22.88
2023-12-03T16:27:49.558Z,24.45
2023-12-03T16:30:17.448Z,23.80
2023-12-03T16:32:44.662Z,22.15
2023-12-03T16:35:12.385Z,24.30
2023-12-03T16:37:39.315Z,24.65
2023-12-03T16:40:07.262Z,18.15
2023-12-03T16:42:33.893Z,22.48
2023-12-03T16:45:00.603Z,21.23
2023-12-03T16:47:27.311Z,25.15
2023-12-03T16:49:54.117Z,18.25
2023-12-03T16:52:20.717Z,19.58
2023-12-03T16:54:47.976Z,20.60
2023-12-03T16:57:16.055Z,16.30
2023-12-03T16:59:42.994Z,19.55
2023-12-03T17:02:09.832Z,21.42
2023-12-03T17:04:38.299Z,22.05
2023-12-03T17:07:06.174Z,21.00
2023-12-03T17:09:33.246Z,20.73
2023-12-03T17:12:01.714Z,19.15
2023-12-03T17:14:28.636Z,18.63
2023-12-03T17:16:55.813Z,21.77
2023-12-03T17:19:22.523Z,20.77
2023-12-03T17:21:49.407Z,32.65
2023-12-03T17:24:16.116Z,26.70
2023-12-03T17:26:43.057Z,23.15
2023-12-03T17:29:10.121Z,26.55
2023-12-03T17:31:36.931Z,24.25
2023-12-03T17:34:03.767Z,20.27
2023-12-03T17:36:31.996Z,21.67
2023-12-03T17:38:58.751Z,22.17
2023-12-03T17:41:25.436Z,23.30
2023-12-03T17:43:52.629Z,18.85
2023-12-03T17:46:19.342Z,21.77
2023-12-03T17:48:46.133Z,20.60
2023-12-03T17:51:12.835Z,26.30
2023-12-03T17:53:39.609Z,24.15
2023-12-03T17:56:09.041Z,19.50
2023-12-03T17:58:37.730Z,20.02
2023-12-03T18:01:05.116Z,22.65
2023-12-03T18:03:31.903Z,27.00
2023-12-03T18:06:00.463Z,27.00
2023-12-03T18:08:27.389Z,27.20
2023-12-03T18:10:54.215Z,23.65
2023-12-03T18:13:21.107Z,31.98
2023-12-03T18:15:47.929Z,23.25
2023-12-03T18:18:18.277Z,25.98
2023-12-03T18:20:46.031Z,27.45
2023-12-03T18:23:12.647Z,28.80
2023-12-03T18:25:39.314Z,25.38
2023-12-03T18:28:08.153Z,22.63
2023-12-03T18:30:38.276Z,29.55
2023-12-03T18:33:08.358Z,23.38
2023-12-03T18:35:35.267Z,25.90
2023-12-03T18:38:02.000Z,19.65
2023-12-03T18:40:28.629Z,27.83
2023-12-03T18:42:55.337Z,24.98
2023-12-03T18:45:23.106Z,21.42
2023-12-03T18:47:50.757Z,21.23
2023-12-03T18:50:17.488Z,18.35
2023-12-03T18:52:44.389Z,19.05
2023-12-03T18:55:12.263Z,15.75
2023-12-03T18:57:38.980Z,22.35
2023-12-03T19:00:06.308Z,22.15
2023-12-03T19:02:34.393Z,18.50
2023-12-03T19:05:01.163Z,21.92
2023-12-03T19:07:27.830Z,18.25
2023-12-03T19:09:55.256Z,15.85
2023-12-03T19:12:21.910Z,16.67
2023-12-03T19:14:48.591Z,17.38
2023-12-03T19:17:15.252Z,17.80
2023-12-03T19:19:41.967Z,17.30
2023-12-03T19:22:08.862Z,17.23
2023-12-03T19:24:35.582Z,18.65
2023-12-03T19:27:02.351Z,19.48
2023-12-03T19:29:29.016Z,19.80
2023-12-03T19:31:56.788Z,17.60
2023-12-03T19:34:23.572Z,19.73
2023-12-03T19:36:50.543Z,18.48
2023-12-03T19:39:17.187Z,20.48
2023-12-03T19:41:45.169Z,15.63
2023-12-03T19:44:11.882Z,19.95
2023-12-03T19:46:38.535Z,19.95
2023-12-03T19:49:05.207Z,20.98
2023-12-03T19:51:31.923Z,22.95
2023-12-03T19:53:58.576Z,18.45
2023-12-03T19:56:25.276Z,21.30
2023-12-03T19:58:53.476Z,19.80
2023-12-03T20:01:20.425Z,18.83
2023-12-03T20:03:47.186Z,18.80
2023-12-03T20:06:14.089Z,18.10
2023-12-03T20:08:40.717Z,22.48
2023-12-03T20:11:07.993Z,19.67
2023-12-03T20:13:35.546Z,19.33
2023-12-03T20:16:03.515Z,19.17
2023-12-03T20:18:31.305Z,21.95
2023-12-03T20:20:58.076Z,22.85
2023-12-03T20:23:25.135Z,20.98
2023-12-03T20:25:54.289Z,17.08
2023-12-03T20:28:21.696Z,20.60
2023-12-03T20:30:48.652Z,17.52
2023-12-03T20:33:15.907Z,17.42
2023-12-03T20:35:42.775Z,17.75
2023-12-03T20:38:09.468Z,15.48
2023-12-03T20:40:36.145Z,20.08
2023-12-03T20:43:03.543Z,19.95
2023-12-03T20:45:30.468Z,18.63
2023-12-03T20:47:57.423Z,18.13
2023-12-03T20:50:24.299Z,18.58
2023-12-03T20:52:51.766Z,18.80
2023-12-03T20:55:18.608Z,24.85
2023-12-03T20:57:45.245Z,20.30
2023-12-03T21:00:12.650Z,20.80
2023-12-03T21:02:39.314Z,16.95
2023-12-03T21:05:06.158Z,17.55
2023-12-03T21:07:34.031Z,20.73
2023-12-03T21:10:00.719Z,16.08
2023-12-03T21:12:27.585Z,16.02
2023-12-03T21:14:54.664Z,17.65
2023-12-03T21:17:23.137Z,19.48
2023-12-03T21:19:50.450Z,18.98
2023-12-03T21:22:17.230Z,18.60
2023-12-03T21:24:44.801Z,17.48
2023-12-03T21:27:11.528Z,16.80
2023-12-03T21:29:38.189Z,17.63
2023-12-03T21:32:06.656Z,18.90
2023-12-03T21:34:33.387Z,18.80
2023-12-03T21:37:00.284Z,14.32
2023-12-03T21:39:26.961Z,17.00
2023-12-03T21:41:55.377Z,17.63
2023-12-03T21:44:22.482Z,15.63
2023-12-03T21:46:49.601Z,19.00
2023-12-03T21:49:16.420Z,16.55
2023-12-03T21:51:45.073Z,16.85
2023-12-03T21:54:11.696Z,17.65
2023-12-03T21:56:38.336Z,18.40
2023-12-03T21:59:04.975Z,16.08
2023-12-03T22:01:31.568Z,17.05
2023-12-03T22:03:58.457Z,14.80
2023-12-03T22:06:25.318Z,16.48
2023-12-03T22:08:52.051Z,18.15
2023-12-03T22:11:18.671Z,20.85
2023-12-03T22:13:45.367Z,18.63
2023-12-03T22:16:12.036Z,17.45
2023-12-03T22:18:38.846Z,14.55
2023-12-03T22:21:06.527Z,15.98
2023-12-03T22:23:33.144Z,16.55
2023-12-03T22:26:00.090Z,20.30
2023-12-03T22:28:27.015Z,16.30
2023-12-03T22:30:54.091Z,15.93
2023-12-03T22:33:20.839Z,16.73
2023-12-03T22:35:47.581Z,15.05
2023-12-03T22:38:14.197Z,13.40
2023-12-03T22:40:40.789Z,15.07
2023-12-03T22:43:07.428Z,17.10
2023-12-03T22:45:34.124Z,18.13
2023-12-03T22:48:00.838Z,15.20
2023-12-03T22:50:29.823Z,14.65
2023-12-03T22:52:58.483Z,16.90
2023-12-03T22:55:25.366Z,17.42
2023-12-03T22:57:52.222Z,14.13
2023-12-03T23:00:21.573Z,16.77
2023-12-03T23:02:48.913Z,15.00
2023-12-03T23:05:24.933Z,14.63
2023-12-03T23:07:58.715Z,15.32
2023-12-03T23:10:25.632Z,18.58
2023-12-03T23:12:52.356Z,16.98
2023-12-03T23:15:19.666Z,18.13
2023-12-03T23:17:46.647Z,16.35
2023-12-03T23:20:13.422Z,15.40
2023-12-03T23:22:40.024Z,15.15
2023-12-03T23:25:06.961Z,19.73
2023-12-03T23:27:33.724Z,17.77
2023-12-03T23:30:00.409Z,15.27
2023-12-03T23:32:27.082Z,19.58
2023-12-03T23:34:53.784Z,16.60
2023-12-03T23:37:20.510Z,17.40
2023-12-03T23:39:47.262Z,14.98
2023-12-03T23:42:13.916Z,18.67
2023-12-03T23:44:40.530Z,19.35
2023-12-03T23:47:07.122Z,18.23
2023-12-03T23:49:33.838Z,23.10
2023-12-03T23:52:00.492Z,18.35
2023-12-03T23:54:27.183Z,19.58
2023-12-03T23:56:54.192Z,15.52
2023-12-03T23:59:20.799Z,14.50
